Time;durP1;ratioP1;P1;durP2;ratioP2;P2;SDS_P1;SDS_P2;PMS_P1;PMS_P2;Temp;Humidity;BMP_temperature;BMP_pressure;BME280_temperature;BME280_humidity;BME280_pressure;Samples;Min_cycle;Max_cycle;Signal;HPM_P1;HPM_P2
2022/12/08 00:00:05;;;;;;;4.88;4.50;;;;;;;2.57;100.00;101135.47;6250959;22;20043;-78
2022/12/08 00:02:37;;;;;;;5.95;4.13;;;;;;;2.57;100.00;101130.97;6251109;22;20021;-78
2022/12/08 00:10:34;;;;;;;6.93;4.65;;;;;;;2.58;100.00;101118.56;6250546;22;20020;-78
2022/12/08 00:13:16;;;;;;;11.35;4.45;;;;;;;2.59;100.00;101114.81;6250747;22;20024;-78
2022/12/08 00:15:42;;;;;;;5.72;3.92;;;;;;;2.59;100.00;101106.94;6250984;22;20045;-78
2022/12/08 00:18:09;;;;;;;7.25;4.68;;;;;;;2.60;100.00;101100.56;6250530;22;20020;-78
2022/12/08 00:20:35;;;;;;;4.80;4.32;;;;;;;2.61;100.00;101108.06;6251192;22;20395;-77
2022/12/08 00:23:03;;;;;;;8.93;4.90;;;;;;;2.61;100.00;101102.81;6250969;22;20458;-77
2022/12/08 00:25:30;;;;;;;7.30;5.40;;;;;;;2.63;100.00;101110.31;6250376;22;20017;-77
2022/12/08 00:27:57;;;;;;;5.28;4.70;;;;;;;2.63;100.00;101110.31;6250827;22;20017;-76
2022/12/08 00:30:23;;;;;;;5.65;5.15;;;;;;;2.65;100.00;101102.81;6250396;22;20040;-76
2022/12/08 00:32:50;;;;;;;5.28;4.78;;;;;;;2.67;100.00;101097.94;6250930;22;20017;-76
2022/12/08 00:35:16;;;;;;;6.15;5.22;;;;;;;2.67;100.00;101092.66;6250766;22;20521;-77
2022/12/08 00:37:43;;;;;;;5.75;5.00;;;;;;;2.66;100.00;101089.28;6249344;22;20075;-77
2022/12/08 00:40:09;;;;;;;6.43;5.15;;;;;;;2.67;100.00;101084.78;6249996;22;20016;-77
2022/12/08 00:42:36;;;;;;;7.78;5.38;;;;;;;2.67;100.00;101082.91;6250908;22;20017;-77
2022/12/08 00:45:03;;;;;;;7.20;5.65;;;;;;;2.66;100.00;101081.41;6257166;22;20016;-77
2022/12/08 00:47:29;;;;;;;6.63;5.95;;;;;;;2.66;100.00;101073.50;6281659;22;20012;-77
2022/12/08 00:49:56;;;;;;;8.13;5.65;;;;;;;2.64;100.00;101062.63;6281711;22;20016;-77
2022/12/08 00:52:22;;;;;;;6.22;5.63;;;;;;;2.63;100.00;101061.13;6254216;22;20019;-77
2022/12/08 00:54:49;;;;;;;6.03;5.53;;;;;;;2.62;100.00;101057.00;6281043;22;20020;-77
2022/12/08 00:57:15;;;;;;;7.13;5.88;;;;;;;2.63;100.00;101063.75;6281385;22;20020;-77
2022/12/08 00:59:42;;;;;;;7.43;6.28;;;;;;;2.62;100.00;101058.88;6254458;22;20012;-77
2022/12/08 01:02:08;;;;;;;9.05;5.97;;;;;;;2.60;100.00;101046.09;6281190;22;20012;-77
2022/12/08 01:04:35;;;;;;;7.28;5.97;;;;;;;2.60;100.00;101055.88;6254564;22;20012;-78
2022/12/08 01:07:01;;;;;;;6.15;5.60;;;;;;;2.60;100.00;101047.97;6228695;22;20395;-78
2022/12/08 01:09:28;;;;;;;5.80;4.93;;;;;;;2.56;100.00;101047.97;6253432;22;20040;-77
2022/12/08 01:11:54;;;;;;;6.25;5.28;;;;;;;2.57;100.00;101048.72;6281523;22;20019;-77
2022/12/08 01:14:21;;;;;;;6.13;5.47;;;;;;;2.58;100.00;101044.97;6253834;22;20446;-77
2022/12/08 01:16:47;;;;;;;6.53;5.93;;;;;;;2.59;100.00;101039.34;6254383;22;20020;-77
2022/12/08 01:19:15;;;;;;;6.60;5.82;;;;;;;2.59;100.00;101049.84;6253946;22;20070;-78
2022/12/08 01:21:43;;;;;;;6.53;5.25;;;;;;;2.59;100.00;101052.50;6254067;22;20024;-77
2022/12/08 01:24:15;;;;;;;7.47;5.63;;;;;;;2.60;100.00;101061.88;6254271;22;20051;-77
2022/12/08 01:26:42;;;;;;;5.75;5.15;;;;;;;2.61;100.00;101052.88;6281577;22;20012;-77
2022/12/08 01:29:09;;;;;;;7.47;5.20;;;;;;;2.61;100.00;101049.47;6253592;22;20046;-76
2022/12/08 01:31:36;;;;;;;7.65;4.93;;;;;;;2.62;100.00;101040.47;6281353;22;20012;-76
2022/12/08 01:34:03;;;;;;;6.05;5.03;;;;;;;2.63;100.00;101032.22;6281540;22;20481;-77
2022/12/08 01:36:31;;;;;;;6.57;5.43;;;;;;;2.65;100.00;101029.22;6281008;22;20453;-77
2022/12/08 01:39:00;;;;;;;4.85;4.55;;;;;;;2.66;100.00;101039.34;6228759;22;20046;-78
2022/12/08 01:41:30;;;;;;;5.80;5.30;;;;;;;2.65;100.00;101047.59;6281036;22;20027;-77
2022/12/08 01:44:23;;;;;;;5.53;5.13;;;;;;;2.66;100.00;101054.38;6281310;22;20020;-78
2022/12/08 01:46:52;;;;;;;5.10;4.60;;;;;;;2.66;100.00;101057.00;6280675;22;20016;-78
2022/12/08 01:49:29;;;;;;;5.18;4.72;;;;;;;2.65;100.00;101058.88;6281139;22;20016;-78
2022/12/08 01:52:21;;;;;;;4.90;4.50;;;;;;;2.65;100.00;101050.97;6280736;22;20012;-77
2022/12/08 01:55:02;;;;;;;4.50;4.10;;;;;;;2.65;100.00;101048.34;6233845;22;20024;-77
2022/12/08 01:57:33;;;;;;;3.92;3.63;;;;;;;2.65;100.00;101043.09;6280894;22;20016;-77
2022/12/08 02:00:05;;;;;;;4.97;3.40;;;;;;;2.65;100.00;101037.09;6281358;22;20416;-77
2022/12/08 02:02:46;;;;;;;3.20;3.00;;;;;;;2.64;100.00;101040.84;6281400;22;20480;-77
2022/12/08 02:05:15;;;;;;;3.30;3.00;;;;;;;2.63;100.00;101040.09;6253903;22;20091;-77
2022/12/08 02:07:42;;;;;;;5.88;3.17;;;;;;;2.64;100.00;101038.22;6254206;22;20012;-77
2022/12/08 02:10:13;;;;;;;3.47;3.28;;;;;;;2.64;100.00;101025.81;6280707;22;20100;-77
2022/12/08 02:12:39;;;;;;;3.40;3.10;;;;;;;2.66;100.00;101022.81;6281338;22;20019;-78
2022/12/08 02:15:06;;;;;;;3.28;2.97;;;;;;;2.67;100.00;101024.31;6251047;22;20066;-78
2022/12/08 02:17:52;;;;;;;5.05;3.22;;;;;;;2.68;100.00;101021.31;6252799;22;20477;-78
2022/12/08 02:20:33;;;;;;;3.53;3.33;;;;;;;2.67;100.00;101013.81;6227691;22;20020;-78
2022/12/08 02:23:10;;;;;;;4.17;3.87;;;;;;;2.65;100.00;101011.56;6253526;22;20016;-78
2022/12/08 02:25:39;;;;;;;4.03;3.72;;;;;;;2.65;100.00;101011.56;6252858;22;20466;-78
2022/12/08 02:28:27;;;;;;;5.78;4.20;;;;;;;2.66;100.00;101002.53;6252971;22;20047;-77
2022/12/08 02:31:00;;;;;;;4.75;3.80;;;;;;;2.66;100.00;100997.28;6228503;22;20027;-78
2022/12/08 02:33:45;;;;;;;5.18;4.68;;;;;;;2.66;100.00;101001.78;6253550;22;20074;-77
2022/12/08 02:36:34;;;;;;;8.70;4.60;;;;;;;2.64;100.00;100990.91;6253080;22;20020;-77
2022/12/08 02:39:22;;;;;;;4.50;4.20;;;;;;;2.65;100.00;100992.41;6280962;22;20143;-77
2022/12/08 02:42:01;;;;;;;5.30;4.80;;;;;;;2.67;100.00;100992.78;6254143;22;20016;-77
2022/12/08 02:44:34;;;;;;;5.50;5.00;;;;;;;2.68;100.00;100991.66;6253279;22;20066;-76
2022/12/08 02:47:07;;;;;;;6.30;4.40;;;;;;;2.69;100.00;100990.53;6280943;22;20020;-76
2022/12/08 02:49:34;;;;;;;6.80;5.05;;;;;;;2.68;100.00;100989.78;6280428;22;20096;-76
2022/12/08 02:52:28;;;;;;;5.30;4.80;;;;;;;2.68;100.00;100979.25;6253905;22;20013;-77
2022/12/08 02:55:00;;;;;;;5.22;4.45;;;;;;;2.71;100.00;100977.00;6280668;22;20055;-77
2022/12/08 02:57:51;;;;;;;5.60;4.40;;;;;;;2.71;100.00;100967.22;6280591;22;20461;-77
2022/12/08 03:00:21;;;;;;;5.63;4.77;;;;;;;2.71;100.00;100969.88;6280591;22;20016;-77
2022/12/08 03:03:12;;;;;;;4.97;4.47;;;;;;;2.72;100.00;100967.97;6280804;22;20208;-77
2022/12/08 03:06:16;;;;;;;4.50;4.10;;;;;;;2.72;100.00;100965.34;6253618;22;20012;-77
2022/12/08 03:09:02;;;;;;;4.35;4.05;;;;;;;2.71;100.00;100964.59;6280884;22;20016;-77
2022/12/08 03:11:37;;;;;;;3.83;3.53;;;;;;;2.70;100.00;100957.84;6280332;22;20012;-77
2022/12/08 03:14:06;;;;;;;4.28;3.97;;;;;;;2.71;100.00;100958.59;6280856;22;20012;-77
2022/12/08 03:16:36;;;;;;;4.28;3.88;;;;;;;2.71;100.00;100958.59;6280493;22;20051;-77
2022/12/08 03:19:16;;;;;;;3.72;3.42;;;;;;;2.72;100.00;100954.84;6280095;22;20008;-77
2022/12/08 03:21:45;;;;;;;4.63;3.45;;;;;;;2.73;100.00;100959.72;6280476;22;20500;-77
2022/12/08 03:24:14;;;;;;;3.45;3.15;;;;;;;2.73;100.00;100958.97;6252443;22;20047;-76
2022/12/08 03:26:56;;;;;;;4.22;3.10;;;;;;;2.73;100.00;100957.09;6227634;22;20039;-75
2022/12/08 03:29:23;;;;;;;3.83;3.10;;;;;;;2.74;100.00;100960.47;6280009;22;20051;-76
2022/12/08 03:31:55;;;;;;;3.08;2.80;;;;;;;2.75;100.00;100946.19;6280557;22;20020;-76
2022/12/08 03:34:24;;;;;;;;;;;;;;;2.78;100.00;100950.69;6253144;22;20016;-76
2022/12/08 03:36:50;;;;;;;4.57;2.60;;;;;;;2.77;100.00;100955.19;6280681;22;19926;-77
2022/12/08 03:39:17;;;;;;;2.17;1.92;;;;;;;2.77;100.00;100949.19;6253395;22;20063;-77
2022/12/08 03:41:45;;;;;;;3.00;2.20;;;;;;;2.76;100.00;100947.69;6281911;22;20404;-77
2022/12/08 03:44:12;;;;;;;3.72;2.15;;;;;;;2.74;100.00;100942.81;6281454;22;20044;-77
2022/12/08 03:46:38;;;;;;;4.25;2.10;;;;;;;2.74;100.00;100932.31;6281507;22;20028;-77
2022/12/08 03:49:05;;;;;;;6.40;1.83;;;;;;;2.73;100.00;100930.81;6281102;22;20020;-77
2022/12/08 03:51:31;;;;;;;1.70;1.60;;;;;;;2.72;100.00;100920.66;6254348;22;20020;-77
2022/12/08 03:53:58;;;;;;;1.50;1.40;;;;;;;2.74;100.00;100918.41;6281889;22;20012;-77
2022/12/08 03:56:31;;;;;;;3.42;1.52;;;;;;;2.73;100.00;100916.91;6281596;22;20016;-77
2022/12/08 03:58:58;;;;;;;1.60;1.25;;;;;;;2.69;100.00;100911.66;6254233;22;20030;-77
2022/12/08 04:01:24;;;;;;;2.50;1.10;;;;;;;2.68;100.00;100910.16;6280641;22;20023;-77
2022/12/08 04:03:52;;;;;;;1.33;1.02;;;;;;;2.65;100.00;100909.03;6281997;22;20017;-77
2022/12/08 04:06:19;;;;;;;0.90;0.90;;;;;;;2.66;100.00;100915.03;6281357;22;20039;-77
2022/12/08 04:08:46;;;;;;;1.00;0.90;;;;;;;2.63;100.00;100918.44;6254834;22;20024;-78
2022/12/08 04:11:12;;;;;;;2.47;1.00;;;;;;;2.65;100.00;100924.06;6281275;22;20393;-78
2022/12/08 04:13:40;;;;;;;0.73;0.73;;;;;;;2.65;100.00;100911.66;6281946;22;20019;-77
2022/12/08 04:16:12;;;;;;;1.20;0.93;;;;;;;2.64;100.00;100904.16;6253434;22;20016;-77
2022/12/08 04:18:38;;;;;;;1.02;1.00;;;;;;;2.66;100.00;100915.03;6281886;22;20020;-77
2022/12/08 04:21:05;;;;;;;1.27;0.70;;;;;;;2.66;100.00;100909.78;6281464;22;20547;-78
2022/12/08 04:23:31;;;;;;;1.08;1.08;;;;;;;2.64;100.00;100909.41;6281693;22;20095;-78
2022/12/08 04:25:58;;;;;;;1.45;1.10;;;;;;;2.67;100.00;100898.91;6281825;22;20036;-77
2022/12/08 04:28:24;;;;;;;0.82;0.82;;;;;;;2.68;100.00;100902.28;6281419;22;20022;-78
2022/12/08 04:30:51;;;;;;;2.28;0.90;;;;;;;2.70;100.00;100904.53;6280885;22;20048;-78
2022/12/08 04:33:17;;;;;;;1.73;1.10;;;;;;;2.67;100.00;100893.63;6281332;22;20043;-78
2022/12/08 04:35:44;;;;;;;0.80;0.80;;;;;;;2.66;100.00;100894.75;6281889;22;20074;-79
2022/12/08 04:38:10;;;;;;;0.98;0.93;;;;;;;2.65;100.00;100895.91;6281364;22;20438;-78
2022/12/08 04:40:37;;;;;;;1.60;1.50;;;;;;;2.66;100.00;100888.75;6281900;22;20018;-78
2022/12/08 04:43:04;;;;;;;1.30;1.20;;;;;;;2.65;100.00;100880.13;6281796;22;20012;-78
2022/12/08 04:45:31;;;;;;;3.85;1.20;;;;;;;2.68;100.00;100878.63;6280477;22;20031;-78
2022/12/08 04:47:58;;;;;;;2.50;1.70;;;;;;;2.66;100.00;100886.88;6254730;22;20020;-78
2022/12/08 04:50:26;;;;;;;1.70;1.60;;;;;;;2.66;100.00;100888.75;6253915;22;20016;-78
2022/12/08 04:52:52;;;;;;;1.92;1.83;;;;;;;2.69;100.00;100893.25;6281755;22;20472;-78
2022/12/08 04:55:19;;;;;;;1.98;1.83;;;;;;;2.67;100.00;100892.88;6253652;22;20051;-78
2022/12/08 04:57:46;;;;;;;1.70;1.55;;;;;;;2.68;100.00;100889.88;6254788;22;20413;-78
2022/12/08 05:00:13;;;;;;;4.80;1.88;;;;;;;2.68;100.00;100889.88;6253458;22;20036;-78
2022/12/08 05:02:39;;;;;;;2.58;2.35;;;;;;;2.67;100.00;100891.00;6281821;22;20067;-78
2022/12/08 05:05:06;;;;;;;3.58;2.03;;;;;;;2.67;100.00;100885.75;6254389;22;20125;-78
2022/12/08 05:07:33;;;;;;;2.17;2.08;;;;;;;2.67;100.00;100885.00;6281635;22;20429;-78
2022/12/08 05:09:59;;;;;;;3.28;2.00;;;;;;;2.65;100.00;100888.00;6281512;22;20414;-78
2022/12/08 05:12:26;;;;;;;2.17;1.98;;;;;;;2.64;100.00;100877.88;6228534;22;20020;-77
2022/12/08 05:14:52;;;;;;;2.10;2.00;;;;;;;2.67;100.00;100882.38;6253871;22;20513;-78
2022/12/08 05:17:19;;;;;;;1.90;1.77;;;;;;;2.69;100.00;100880.13;6281066;22;20021;-76
2022/12/08 05:19:46;;;;;;;2.72;1.90;;;;;;;2.68;100.00;100883.88;6281489;22;20020;-76
2022/12/08 05:22:12;;;;;;;2.13;1.92;;;;;;;2.66;100.00;100879.00;6254183;22;20043;-76
2022/12/08 05:24:38;;;;;;;1.90;1.80;;;;;;;2.68;100.00;100876.72;6281434;22;20032;-76
2022/12/08 05:27:12;;;;;;;2.08;1.90;;;;;;;2.70;100.00;100880.88;6281171;22;20027;-76
2022/12/08 05:29:39;;;;;;;1.73;1.48;;;;;;;2.70;100.00;100881.63;6280753;22;20017;-76
2022/12/08 05:32:05;;;;;;;2.17;1.40;;;;;;;2.70;100.00;100886.13;6281149;22;20020;-76
2022/12/08 05:34:32;;;;;;;3.83;1.33;;;;;;;2.72;100.00;100883.88;6281421;22;20066;-77
2022/12/08 05:36:58;;;;;;;2.63;1.33;;;;;;;2.73;100.00;100878.22;6254014;22;20451;-76
2022/12/08 05:39:25;;;;;;;1.42;1.20;;;;;;;2.70;100.00;100883.50;6281020;22;20016;-76
2022/12/08 05:41:51;;;;;;;2.70;1.45;;;;;;;2.68;100.00;100882.00;6281455;22;20074;-76
2022/12/08 05:44:18;;;;;;;3.15;0.93;;;;;;;2.69;100.00;100885.38;6280718;22;20052;-77
2022/12/08 05:46:45;;;;;;;1.75;1.20;;;;;;;2.67;100.00;100882.38;6254238;22;20458;-76
2022/12/08 05:49:11;;;;;;;0.95;0.70;;;;;;;2.66;100.00;100875.63;6280993;22;20016;-77
2022/12/08 05:51:38;;;;;;;1.27;1.10;;;;;;;2.63;100.00;100871.13;6281348;22;20123;-77
2022/12/08 05:54:04;;;;;;;1.20;0.90;;;;;;;2.63;100.00;100876.38;6280985;22;20079;-77
2022/12/08 05:56:31;;;;;;;1.63;1.00;;;;;;;2.63;100.00;100871.88;6281371;22;20020;-77
2022/12/08 05:58:57;;;;;;;0.70;0.70;;;;;;;2.62;100.00;100873.00;6254578;22;20011;-77
2022/12/08 06:01:27;;;;;;;1.77;0.70;;;;;;;2.59;100.00;100875.63;6281974;22;20012;-77
2022/12/08 06:03:54;;;;;;;0.68;0.68;;;;;;;2.58;100.00;100871.50;6281601;22;20406;-77
2022/12/08 06:06:20;;;;;;;1.10;0.95;;;;;;;2.53;100.00;100867.41;6282247;22;20016;-76
2022/12/08 06:08:47;;;;;;;5.65;0.70;;;;;;;2.53;100.00;100866.66;6282075;22;20043;-77
2022/12/08 06:11:33;;;;;;;0.70;0.70;;;;;;;2.52;100.00;100873.03;6281989;22;20103;-78
2022/12/08 06:14:00;;;;;;;0.70;0.70;;;;;;;2.51;100.00;100866.28;6281595;22;20016;-78
2022/12/08 06:16:27;;;;;;;0.88;0.68;;;;;;;2.48;100.00;100867.03;6254862;22;20047;-77
2022/12/08 06:18:55;;;;;;;1.10;0.98;;;;;;;2.47;100.00;100862.91;6254924;22;20017;-78
2022/12/08 06:21:21;;;;;;;1.25;0.80;;;;;;;2.45;100.00;100858.03;6282177;22;20019;-77
2022/12/08 06:23:49;;;;;;;1.85;0.60;;;;;;;2.46;100.00;100856.16;6281767;22;20031;-77
2022/12/08 06:26:17;;;;;;;0.60;0.60;;;;;;;2.46;100.00;100856.16;6254249;22;20016;-77
2022/12/08 06:28:43;;;;;;;0.90;0.70;;;;;;;2.47;100.00;100855.03;6281849;22;20090;-78
2022/12/08 06:31:14;;;;;;;0.80;0.80;;;;;;;2.47;100.00;100865.53;6254339;22;20017;-77
2022/12/08 06:33:40;;;;;;;2.72;0.80;;;;;;;2.47;100.00;100863.66;6254567;22;20524;-76
2022/12/08 06:36:07;;;;;;;0.70;0.70;;;;;;;2.44;100.00;100861.03;6281865;22;20023;-77
2022/12/08 06:38:34;;;;;;;0.60;0.60;;;;;;;2.41;100.00;100861.78;6254381;22;20020;-76
2022/12/08 06:41:05;;;;;;;;;;;;;;;2.38;100.00;100855.44;6281808;22;20074;-77
2022/12/08 06:43:32;;;;;;;0.50;0.50;;;;;;;2.38;100.00;100862.56;6281783;22;19919;-78
2022/12/08 06:46:00;;;;;;;0.82;0.45;;;;;;;2.35;100.00;100871.97;6281423;22;20484;-77
2022/12/08 06:48:26;;;;;;;0.60;0.52;;;;;;;2.34;100.00;100867.84;6281854;22;20019;-77
2022/12/08 06:50:53;;;;;;;0.68;0.68;;;;;;;2.32;100.00;100873.47;6281886;22;20095;-78
2022/12/08 06:53:19;;;;;;;1.45;0.60;;;;;;;2.29;100.00;100865.59;6281788;22;20554;-78
2022/12/08 06:55:50;;;;;;;0.75;0.52;;;;;;;2.28;100.00;100867.47;6280991;22;20016;-78
2022/12/08 06:58:25;;;;;;;0.50;0.50;;;;;;;2.25;100.00;100870.84;6281947;22;20091;-79
2022/12/08 07:00:52;;;;;;;0.65;0.45;;;;;;;2.21;100.00;100864.88;6254345;22;20019;-82
2022/12/08 07:03:19;;;;;;;0.70;0.50;;;;;;;2.22;100.00;100873.50;6231647;22;20016;-80
2022/12/08 07:05:46;;;;;;;0.85;0.60;;;;;;;2.18;100.00;100870.88;6282275;22;20358;-80
2022/12/08 07:08:12;;;;;;;0.50;0.50;;;;;;;2.17;100.00;100864.13;6254571;22;20461;-80
2022/12/08 07:10:39;;;;;;;0.85;0.80;;;;;;;2.20;100.00;100867.88;6280845;22;20404;-79
2022/12/08 07:13:05;;;;;;;1.00;0.90;;;;;;;2.21;100.00;100867.50;6281539;22;20189;-79
2022/12/08 07:15:32;;;;;;;1.63;1.52;;;;;;;2.16;100.00;100862.63;6255211;22;20030;-79
2022/12/08 07:17:59;;;;;;;1.20;1.17;;;;;;;2.17;100.00;100860.75;6282677;22;20012;-80
2022/12/08 07:20:26;;;;;;;1.70;1.60;;;;;;;2.12;100.00;100864.50;6282827;22;20032;-79
2022/12/08 07:22:56;;;;;;;1.92;1.42;;;;;;;2.12;100.00;100864.50;6255540;22;20079;-79
2022/12/08 07:25:22;;;;;;;1.95;1.85;;;;;;;2.12;100.00;100861.88;6282117;22;20016;-80
2022/12/08 07:27:52;;;;;;;2.05;1.95;;;;;;;2.12;100.00;100863.75;6282624;22;20016;-82
2022/12/08 07:30:19;;;;;;;1.98;1.88;;;;;;;2.08;100.00;100861.13;6255865;22;20012;-82
2022/12/08 07:32:46;;;;;;;2.20;2.10;;;;;;;2.08;100.00;100857.75;6282413;22;20020;-79
2022/12/08 07:35:12;;;;;;;2.05;1.80;;;;;;;2.06;100.00;100855.50;6255782;22;20020;-83
2022/12/08 07:37:39;;;;;;;2.08;1.98;;;;;;;2.05;100.00;100866.38;6282557;22;20464;-81
2022/12/08 07:40:07;;;;;;;1.98;1.88;;;;;;;2.03;100.00;100868.63;6254496;22;20088;-81
2022/12/08 07:42:34;;;;;;;2.15;1.95;;;;;;;2.00;100.00;100862.25;6255045;22;20020;-81
2022/12/08 07:45:01;;;;;;;1.60;1.50;;;;;;;1.99;100.00;100864.16;6254861;22;20023;-80
2022/12/08 07:47:27;;;;;;;2.20;2.00;;;;;;;1.99;100.00;100863.41;6230267;22;20366;-81
2022/12/08 07:49:54;;;;;;;2.17;2.08;;;;;;;1.97;100.00;100866.41;6282519;22;20023;-79
2022/12/08 07:52:20;;;;;;;2.00;1.90;;;;;;;1.98;100.00;100867.91;6282217;22;20024;-81
2022/12/08 07:54:47;;;;;;;2.25;2.03;;;;;;;1.96;100.00;100864.16;6254547;22;20020;-80
2022/12/08 07:57:14;;;;;;;2.45;2.10;;;;;;;1.99;100.00;100860.78;6282650;22;20032;-80
2022/12/08 07:59:40;;;;;;;1.80;1.70;;;;;;;1.98;100.00;100864.53;6282377;22;20016;-81
2022/12/08 08:02:14;;;;;;;2.15;1.95;;;;;;;1.95;100.00;100873.16;6229724;22;20051;-81
2022/12/08 08:04:51;;;;;;;1.77;1.67;;;;;;;1.92;100.00;100864.16;6257502;22;20047;-79
2022/12/08 08:07:17;;;;;;;1.77;1.67;;;;;;;1.91;100.00;100867.16;6255070;22;20020;-79
2022/12/08 08:09:44;;;;;;;4.05;1.52;;;;;;;1.88;100.00;100860.78;6228752;22;20016;-78
2022/12/08 08:12:11;;;;;;;1.63;1.52;;;;;;;1.89;100.00;100864.16;6282206;22;20397;-78
2022/12/08 08:14:59;;;;;;;1.40;1.30;;;;;;;1.90;100.00;100863.78;6233934;22;20028;-79
2022/12/08 08:17:26;;;;;;;2.13;1.60;;;;;;;1.88;100.00;100860.78;6282474;22;20016;-78
2022/12/08 08:19:53;;;;;;;1.75;1.58;;;;;;;1.88;100.00;100867.91;6282534;22;20381;-80
2022/12/08 08:22:19;;;;;;;2.88;1.40;;;;;;;1.90;100.00;100873.53;6254515;22;20020;-79
2022/12/08 08:24:46;;;;;;;2.97;1.27;;;;;;;1.88;100.00;100863.41;6282127;22;20058;-79
2022/12/08 08:27:12;;;;;;;1.13;1.10;;;;;;;1.87;100.00;100874.28;6282191;22;20012;-78
2022/12/08 08:29:39;;;;;;;1.00;1.00;;;;;;;1.91;100.00;100872.41;6254881;22;20020;-79
2022/12/08 08:32:05;;;;;;;1.73;1.00;;;;;;;1.91;100.00;100873.16;6255235;22;20016;-76
2022/12/08 08:34:32;;;;;;;1.20;1.10;;;;;;;1.91;100.00;100883.66;6282633;22;20023;-77
2022/12/08 08:36:58;;;;;;;1.02;0.85;;;;;;;1.91;100.00;100881.03;6281640;22;20032;-77
2022/12/08 08:39:25;;;;;;;2.50;1.08;;;;;;;1.92;100.00;100882.53;6255372;22;20091;-76
2022/12/08 08:41:52;;;;;;;2.22;0.98;;;;;;;1.90;100.00;100879.53;6282334;22;20016;-76
2022/12/08 08:44:18;;;;;;;2.38;1.08;;;;;;;1.91;100.00;100890.78;6282169;22;20110;-77
2022/12/08 08:46:44;;;;;;;1.13;1.13;;;;;;;1.90;100.00;100884.78;6281868;22;20104;-76
2022/12/08 08:49:11;;;;;;;0.98;0.98;;;;;;;1.90;100.00;100890.03;6282177;22;20044;-76
2022/12/08 08:51:38;;;;;;;1.00;1.00;;;;;;;1.89;100.00;100887.78;6281830;22;20413;-77
2022/12/08 08:54:05;;;;;;;2.28;1.13;;;;;;;1.89;100.00;100887.78;6281957;22;20079;-77
2022/12/08 08:56:31;;;;;;;1.00;1.00;;;;;;;1.89;100.00;100887.78;6282191;22;20032;-77
2022/12/08 08:58:58;;;;;;;1.10;1.10;;;;;;;1.89;100.00;100888.53;6282131;22;20008;-77
2022/12/08 09:01:26;;;;;;;2.53;1.00;;;;;;;1.90;100.00;100879.53;6281985;22;20019;-76
2022/12/08 09:03:56;;;;;;;1.20;1.10;;;;;;;1.91;100.00;100890.78;6255201;22;20017;-76
2022/12/08 09:06:24;;;;;;;2.65;1.00;;;;;;;1.93;100.00;100883.28;6281251;22;20012;-77
2022/12/08 09:08:51;;;;;;;0.77;0.77;;;;;;;1.97;100.00;100876.91;6282192;22;20044;-76
2022/12/08 09:11:17;;;;;;;0.90;0.90;;;;;;;1.99;100.00;100872.03;6282146;22;20031;-77
2022/12/08 09:13:48;;;;;;;0.90;0.90;;;;;;;2.04;100.00;100878.00;6282259;22;20016;-77
2022/12/08 09:16:15;;;;;;;1.33;1.08;;;;;;;2.04;100.00;100878.75;6282372;22;20022;-76
2022/12/08 09:18:42;;;;;;;1.15;1.00;;;;;;;2.08;100.00;100882.13;6282073;22;20019;-77
2022/12/08 09:21:12;;;;;;;3.00;1.00;;;;;;;2.14;100.00;100885.88;6281810;22;20086;-77
2022/12/08 09:23:38;;;;;;;2.35;1.27;;;;;;;2.17;100.00;100879.13;6282384;22;20606;-77
2022/12/08 09:26:05;;;;;;;1.30;1.20;;;;;;;2.18;100.00;100875.38;6282340;22;20020;-77
2022/12/08 09:28:32;;;;;;;1.40;1.30;;;;;;;2.20;100.00;100873.13;6282361;22;20012;-77
2022/12/08 09:31:00;;;;;;;4.53;1.30;;;;;;;2.20;100.00;100876.50;6254975;22;20012;-77
2022/12/08 09:33:27;;;;;;;1.40;1.30;;;;;;;2.18;100.00;100876.13;6254493;22;20079;-76
2022/12/08 09:35:53;;;;;;;1.27;1.20;;;;;;;2.16;100.00;100880.25;6254163;22;20084;-77
2022/12/08 09:38:20;;;;;;;1.00;1.00;;;;;;;2.19;100.00;100875.00;6282081;22;20413;-77
2022/12/08 09:40:52;;;;;;;1.10;1.10;;;;;;;2.21;100.00;100866.75;6282043;22;20012;-77
2022/12/08 09:43:57;;;;;;;1.50;1.40;;;;;;;2.22;100.00;100869.00;6282224;22;20023;-77
2022/12/08 09:46:26;;;;;;;1.58;1.48;;;;;;;2.21;100.00;100869.38;6254565;22;20461;-77
2022/12/08 09:48:56;;;;;;;4.97;1.40;;;;;;;2.22;100.00;100870.88;6255086;22;20020;-77
2022/12/08 09:51:33;;;;;;;1.30;1.20;;;;;;;2.22;100.00;100870.88;6281410;22;20438;-77
2022/12/08 09:54:07;;;;;;;1.00;1.00;;;;;;;2.22;100.00;100868.25;6254675;22;20016;-76
2022/12/08 09:56:36;;;;;;;1.08;1.08;;;;;;;2.20;100.00;100881.75;6282070;22;20047;-76
2022/12/08 09:59:08;;;;;;;0.98;0.98;;;;;;;2.25;100.00;100883.25;6282111;22;20432;-76
2022/12/08 10:01:40;;;;;;;1.20;1.10;;;;;;;2.27;100.00;100888.88;6254881;22;20020;-76
2022/12/08 10:04:31;;;;;;;1.30;1.20;;;;;;;2.32;100.00;100881.34;6254194;22;20024;-76
2022/12/08 10:07:32;;;;;;;3.20;1.33;;;;;;;2.32;100.00;100878.72;6255110;22;20052;-77
2022/12/08 10:10:08;;;;;;;1.30;1.17;;;;;;;2.35;100.00;100879.84;6254668;22;20490;-76
2022/12/08 10:12:56;;;;;;;1.20;1.20;;;;;;;2.37;100.00;100879.47;6281952;22;20389;-76
2022/12/08 10:15:34;;;;;;;1.30;1.20;;;;;;;2.39;100.00;100875.34;6254889;22;20516;-76
2022/12/08 10:18:08;;;;;;;1.70;1.40;;;;;;;2.39;100.00;100871.97;6254506;22;20016;-76
2022/12/08 10:20:38;;;;;;;1.08;0.98;;;;;;;2.39;100.00;100864.81;6281409;22;20023;-76
2022/12/08 10:23:18;;;;;;;1.45;1.33;;;;;;;2.39;100.00;100874.59;6254838;22;20568;-77
2022/12/08 10:25:46;;;;;;;1.92;0.90;;;;;;;2.42;100.00;100871.19;6254464;22;20020;-76
2022/12/08 10:28:14;;;;;;;1.45;1.35;;;;;;;2.45;100.00;100870.41;6254393;22;20096;-78
2022/12/08 10:30:41;;;;;;;2.70;1.20;;;;;;;2.49;100.00;100871.91;6281772;22;20016;-77
2022/12/08 10:33:16;;;;;;;2.25;1.20;;;;;;;2.51;100.00;100874.91;6281187;22;20016;-77
2022/12/08 10:35:51;;;;;;;1.17;1.00;;;;;;;2.55;100.00;100867.00;6282052;22;20021;-77
2022/12/08 10:38:21;;;;;;;1.00;1.00;;;;;;;2.55;100.00;100865.13;6254577;22;20027;-77
2022/12/08 10:40:50;;;;;;;2.67;0.85;;;;;;;2.53;100.00;100862.13;6281936;22;20059;-77
2022/12/08 10:43:22;;;;;;;1.00;0.85;;;;;;;2.51;100.00;100861.78;6281622;22;20099;-78
2022/12/08 10:45:50;;;;;;;0.63;0.63;;;;;;;2.49;100.00;100856.13;6253483;22;20028;-77
2022/12/08 10:48:27;;;;;;;1.00;0.77;;;;;;;2.48;100.00;100861.78;6279805;22;20012;-77
2022/12/08 10:50:56;;;;;;;1.08;0.90;;;;;;;2.49;100.00;100860.66;6281494;22;20019;-80
2022/12/08 10:53:25;;;;;;;1.40;0.80;;;;;;;2.51;100.00;100861.03;6253277;22;20504;-77
2022/12/08 10:56:01;;;;;;;1.85;1.10;;;;;;;2.51;100.00;100855.75;6281176;22;20020;-78
2022/12/08 10:58:35;;;;;;;1.67;0.73;;;;;;;2.50;100.00;100857.63;6280947;22;20016;-78
2022/12/08 11:01:05;;;;;;;1.15;0.70;;;;;;;2.50;100.00;100856.88;6254046;22;20022;-77
2022/12/08 11:03:36;;;;;;;0.40;0.40;;;;;;;2.48;100.00;100859.16;6255068;22;20012;-77
2022/12/08 11:06:13;;;;;;;2.37;0.43;;;;;;;2.41;100.00;100862.53;6284654;22;20440;-77
2022/12/08 11:08:56;;;;;;;0.50;0.50;;;;;;;2.38;100.00;100862.56;6284218;22;20070;-79
2022/12/08 11:11:56;;;;;;;1.55;0.57;;;;;;;2.39;100.00;100861.44;6281513;22;20023;-79
2022/12/08 11:14:31;;;;;;;0.63;0.60;;;;;;;2.40;100.00;100855.78;6281183;22;20017;-79
2022/12/08 11:17:23;;;;;;;1.55;0.68;;;;;;;2.40;100.00;100858.41;6253574;22;20484;-79
2022/12/08 11:20:05;;;;;;;1.00;0.90;;;;;;;2.33;100.00;100863.72;6281671;22;20016;-80
2022/12/08 11:22:37;;;;;;;0.95;0.90;;;;;;;2.34;100.00;100849.44;6281479;22;20015;-78
2022/12/08 11:25:06;;;;;;;0.88;0.88;;;;;;;2.37;100.00;100855.81;6254075;22;20409;-78
2022/12/08 11:27:37;;;;;;;0.93;0.73;;;;;;;2.37;100.00;100840.06;6281450;22;20402;-79
2022/12/08 11:30:20;;;;;;;2.17;0.70;;;;;;;2.37;100.00;100840.06;6254191;22;20433;-80
2022/12/08 11:32:52;;;;;;;0.70;0.70;;;;;;;2.40;100.00;100836.69;6280922;22;20027;-79
2022/12/08 11:35:28;;;;;;;1.63;0.98;;;;;;;2.39;100.00;100835.94;6281239;22;20016;-79
2022/12/08 11:38:01;;;;;;;1.50;1.33;;;;;;;2.39;100.00;100824.66;6281348;22;20022;-80
2022/12/08 11:40:49;;;;;;;1.17;1.17;;;;;;;2.39;100.00;100820.16;6281814;22;20008;-79
2022/12/08 11:43:21;;;;;;;1.40;1.38;;;;;;;2.41;100.00;100811.88;6281620;22;20019;-79
2022/12/08 11:46:18;;;;;;;1.80;1.38;;;;;;;2.43;100.00;100809.63;6279852;22;20017;-77